createdAt,value
2018-08-24T00:00:35.155Z,17.85
2018-08-24T00:01:35.096Z,17.67
2018-08-24T00:02:35.308Z,17.55
2018-08-24T00:03:35.062Z,17.65
2018-08-24T00:04:35.133Z,17.63
2018-08-24T00:05:35.189Z,17.65
2018-08-24T00:06:35.096Z,17.7
2018-08-24T00:07:35.119Z,17.94
2018-08-24T00:08:35.398Z,17.8
2018-08-24T00:09:35.183Z,17.74
2018-08-24T00:10:35.245Z,17.77
2018-08-24T00:11:35.179Z,17.68
2018-08-24T00:12:35.080Z,17.69
2018-08-24T00:13:35.104Z,17.54
2018-08-24T00:14:35.142Z,17.78
2018-08-24T00:15:35.223Z,17.8
2018-08-24T00:16:35.182Z,17.69
2018-08-24T00:17:35.126Z,17.78
2018-08-24T00:18:35.091Z,17.78
2018-08-24T00:19:35.086Z,17.65
2018-08-24T00:20:35.137Z,17.71
2018-08-24T00:21:35.366Z,17.74
2018-08-24T00:22:35.170Z,17.82
2018-08-24T00:23:35.263Z,17.66
2018-08-24T00:24:35.091Z,17.82
2018-08-24T00:25:35.118Z,17.89
2018-08-24T00:26:35.103Z,17.79
2018-08-24T00:27:35.094Z,17.86
2018-08-24T00:28:35.490Z,17.82
2018-08-24T00:29:35.102Z,17.84
2018-08-24T00:30:35.208Z,17.93
2018-08-24T00:31:35.564Z,17.8
2018-08-24T00:32:35.227Z,17.64
2018-08-24T00:33:35.190Z,17.7
2018-08-24T00:34:35.125Z,17.82
2018-08-24T00:35:35.131Z,17.74
2018-08-24T00:36:35.316Z,17.64
2018-08-24T00:37:35.231Z,17.7
2018-08-24T00:38:35.125Z,17.68
2018-08-24T00:39:35.214Z,17.77
2018-08-24T00:40:35.312Z,17.58
2018-08-24T00:41:37.008Z,17.79
2018-08-24T00:42:35.459Z,17.67
2018-08-24T00:43:35.116Z,17.65
2018-08-24T00:44:35.127Z,17.66
2018-08-24T00:45:35.104Z,17.59
2018-08-24T00:46:35.388Z,17.67
2018-08-24T00:47:35.217Z,17.53
2018-08-24T00:48:35.645Z,17.51
2018-08-24T00:49:35.164Z,17.54
2018-08-24T00:50:35.281Z,17.85
2018-08-24T00:51:35.290Z,17.61
2018-08-24T00:52:35.141Z,17.59
2018-08-24T00:53:35.222Z,17.88
2018-08-24T00:54:35.259Z,17.65
2018-08-24T00:55:35.239Z,17.62
2018-08-24T00:56:35.144Z,17.6
2018-08-24T00:57:35.196Z,17.61
2018-08-24T00:58:35.306Z,17.43
2018-08-24T00:59:35.142Z,17.55
2018-08-24T01:00:35.352Z,17.48
2018-08-24T01:01:35.152Z,17.53
2018-08-24T01:02:35.193Z,17.47
2018-08-24T01:03:35.174Z,17.56
2018-08-24T01:04:35.261Z,17.46
2018-08-24T01:05:35.278Z,17.51
2018-08-24T01:06:35.183Z,17.53
2018-08-24T01:07:35.556Z,17.51
2018-08-24T01:08:35.437Z,17.45
2018-08-24T01:09:35.398Z,17.55
2018-08-24T01:10:35.205Z,17.45
2018-08-24T01:11:35.465Z,17.53
2018-08-24T01:12:35.193Z,17.43
2018-08-24T01:13:35.321Z,17.55
2018-08-24T01:14:35.237Z,17.57
2018-08-24T01:15:35.292Z,17.64
2018-08-24T01:16:35.315Z,17.57
2018-08-24T01:17:35.188Z,17.51
2018-08-24T01:18:35.164Z,17.75
2018-08-24T01:19:35.200Z,17.51
2018-08-24T01:20:35.196Z,17.57
2018-08-24T01:21:35.210Z,17.69
2018-08-24T01:22:35.189Z,17.6
2018-08-24T01:23:35.204Z,17.66
2018-08-24T01:24:35.175Z,17.56
2018-08-24T01:25:35.180Z,17.62
2018-08-24T01:26:35.214Z,17.56
2018-08-24T01:27:35.150Z,17.51
2018-08-24T01:28:35.157Z,17.54
2018-08-24T01:29:35.311Z,17.49
2018-08-24T01:30:35.177Z,17.55
2018-08-24T01:31:35.224Z,17.63
2018-08-24T01:32:35.183Z,17.66
2018-08-24T01:33:35.205Z,17.74
2018-08-24T01:34:35.179Z,17.68
2018-08-24T01:35:35.210Z,17.54
2018-08-24T01:36:35.481Z,17.6
2018-08-24T01:37:35.216Z,17.84
2018-08-24T01:38:35.209Z,17.65
2018-08-24T01:39:35.169Z,17.77
2018-08-24T01:40:35.313Z,17.65
2018-08-24T01:41:35.182Z,17.6
2018-08-24T01:42:35.172Z,17.62
2018-08-24T01:43:35.213Z,17.43
2018-08-24T01:44:35.676Z,17.64
2018-08-24T01:45:35.381Z,17.55
2018-08-24T01:46:35.203Z,17.64
2018-08-24T01:47:35.278Z,17.63
2018-08-24T01:48:35.312Z,17.65
2018-08-24T01:49:35.186Z,17.67
2018-08-24T01:50:35.304Z,17.58
2018-08-24T01:51:35.437Z,17.61
2018-08-24T01:52:35.327Z,17.44
2018-08-24T01:53:35.210Z,17.52
2018-08-24T01:54:35.258Z,17.78
2018-08-24T01:55:35.367Z,17.75
2018-08-24T01:56:35.374Z,17.58
2018-08-24T01:57:35.225Z,17.47
2018-08-24T01:58:35.259Z,17.57
2018-08-24T01:59:35.248Z,17.63
2018-08-24T02:00:35.313Z,17.61
2018-08-24T02:01:35.245Z,17.64
2018-08-24T02:02:35.294Z,17.42
2018-08-24T02:03:35.227Z,17.57
2018-08-24T02:04:35.623Z,17.47
2018-08-24T02:05:35.284Z,17.48
2018-08-24T02:06:35.277Z,17.42
2018-08-24T02:07:35.237Z,17.53
2018-08-24T02:08:35.392Z,17.64
2018-08-24T02:09:35.343Z,17.41
2018-08-24T02:10:35.318Z,17.61
2018-08-24T02:11:35.370Z,17.55
2018-08-24T02:12:35.237Z,17.59
2018-08-24T02:13:35.311Z,17.7
2018-08-24T02:14:36.003Z,17.63
2018-08-24T02:15:35.416Z,17.73
2018-08-24T02:16:35.362Z,17.65
2018-08-24T02:17:35.319Z,17.38
2018-08-24T02:18:35.214Z,17.38
2018-08-24T02:19:35.265Z,17.54
2018-08-24T02:20:35.270Z,17.53
2018-08-24T02:21:35.340Z,17.43
2018-08-24T02:22:35.593Z,17.37
2018-08-24T02:23:35.352Z,17.38
2018-08-24T02:24:35.348Z,17.58
2018-08-24T02:25:35.418Z,17.34
2018-08-24T02:26:35.355Z,17.46
2018-08-24T02:27:35.410Z,17.71
2018-08-24T02:28:35.263Z,17.67
2018-08-24T02:29:36.408Z,17.71
2018-08-24T02:30:35.352Z,17.67
2018-08-24T02:31:35.528Z,17.44
2018-08-24T02:32:35.292Z,17.42
2018-08-24T02:33:35.321Z,17.37
2018-08-24T02:34:35.379Z,17.34
2018-08-24T02:35:35.388Z,17.46
2018-08-24T02:36:35.414Z,17.37
2018-08-24T02:37:35.534Z,17.47
2018-08-24T02:38:35.397Z,17.5
2018-08-24T02:39:35.333Z,17.35
2018-08-24T02:40:35.367Z,17.4
2018-08-24T02:41:35.364Z,17.26
2018-08-24T02:42:35.508Z,17.21
2018-08-24T02:43:35.535Z,17.28
2018-08-24T02:44:35.415Z,17.32
2018-08-24T02:45:35.432Z,17.46
2018-08-24T02:46:35.327Z,17.44
2018-08-24T02:47:35.470Z,17.29
2018-08-24T02:48:35.316Z,17.37
2018-08-24T02:49:35.400Z,17.23
2018-08-24T02:50:35.482Z,17.26
2018-08-24T02:51:35.400Z,17.35
2018-08-24T02:52:35.339Z,17.39
2018-08-24T02:53:35.642Z,17.33
2018-08-24T02:54:35.336Z,17.24
2018-08-24T02:55:35.399Z,17.23
2018-08-24T02:56:35.407Z,17.23
2018-08-24T02:57:35.309Z,17.31
2018-08-24T02:58:35.369Z,17.31
2018-08-24T02:59:35.360Z,17.25
2018-08-24T03:00:35.420Z,17.39
2018-08-24T03:01:35.304Z,17.41
2018-08-24T03:02:35.601Z,17.27
2018-08-24T03:03:35.319Z,17.34
2018-08-24T03:04:35.313Z,17.36
2018-08-24T03:05:36.726Z,17.47
2018-08-24T03:06:35.343Z,17.48
2018-08-24T03:07:35.377Z,17.42
2018-08-24T03:08:35.335Z,17.52
2018-08-24T03:09:35.329Z,17.49
2018-08-24T03:10:35.459Z,17.56
2018-08-24T03:11:35.366Z,17.4
2018-08-24T03:12:35.304Z,17.27
2018-08-24T03:13:35.447Z,17.35
2018-08-24T03:14:35.417Z,17.35
2018-08-24T03:15:35.387Z,17.36
2018-08-24T03:16:35.333Z,17.52
2018-08-24T03:17:35.319Z,17.47
2018-08-24T03:18:35.310Z,17.51
2018-08-24T03:19:35.408Z,17.64
2018-08-24T03:20:35.409Z,17.61
2018-08-24T03:21:35.803Z,17.57
2018-08-24T03:22:35.328Z,17.51
2018-08-24T03:23:35.348Z,17.52
2018-08-24T03:24:35.370Z,17.7
2018-08-24T03:25:35.444Z,17.53
2018-08-24T03:26:35.373Z,17.61
2018-08-24T03:27:35.510Z,17.52
2018-08-24T03:28:35.344Z,17.34
2018-08-24T03:29:35.335Z,17.5
2018-08-24T03:30:35.384Z,17.43
2018-08-24T03:31:35.462Z,17.46
2018-08-24T03:32:35.508Z,17.56
2018-08-24T03:33:35.468Z,17.6
2018-08-24T03:34:35.631Z,17.45
2018-08-24T03:35:35.441Z,17.61
2018-08-24T03:36:35.458Z,17.56
2018-08-24T03:37:35.332Z,17.55
2018-08-24T03:38:35.356Z,17.43
2018-08-24T03:39:35.378Z,17.35
2018-08-24T03:40:35.411Z,17.37
2018-08-24T03:41:35.408Z,17.57
2018-08-24T03:42:35.342Z,17.56
2018-08-24T03:43:35.398Z,17.49
2018-08-24T03:44:35.410Z,17.4
2018-08-24T03:45:35.529Z,17.38
2018-08-24T03:46:35.506Z,17.47
2018-08-24T03:47:35.496Z,17.47
2018-08-24T03:48:35.466Z,17.25
2018-08-24T03:50:00.111Z,17.27
2018-08-24T03:50:35.473Z,17.24
2018-08-24T03:51:35.353Z,17.24
2018-08-24T03:52:35.420Z,17.32
2018-08-24T03:53:36.039Z,17.27
2018-08-24T03:54:41.510Z,17.39
2018-08-24T03:55:35.402Z,17.37
2018-08-24T03:56:35.490Z,17.27
2018-08-24T03:57:35.394Z,17.31
2018-08-24T03:58:39.437Z,17.29
2018-08-24T03:59:47.285Z,17.14
2018-08-24T04:00:35.414Z,17.21
2018-08-24T04:01:37.094Z,17.21
2018-08-24T04:02:35.539Z,17.1
2018-08-24T04:03:35.456Z,17.1
2018-08-24T04:04:35.362Z,17.13
2018-08-24T04:05:35.412Z,17.23
2018-08-24T04:06:35.501Z,17.17
2018-08-24T04:07:35.454Z,17.21
2018-08-24T04:08:37.949Z,17.1
2018-08-24T04:09:35.396Z,17.24
2018-08-24T04:10:35.530Z,17.11
2018-08-24T04:11:35.409Z,17.03
2018-08-24T04:12:35.454Z,17.13
2018-08-24T04:13:35.465Z,17.22
2018-08-24T04:14:35.424Z,17.19
2018-08-24T04:15:35.675Z,17.1
2018-08-24T04:16:35.479Z,17.07
2018-08-24T04:17:35.411Z,17.11
2018-08-24T04:18:35.376Z,17.11
2018-08-24T04:19:36.327Z,17.09
2018-08-24T04:20:35.385Z,17.24
2018-08-24T04:21:35.569Z,17.18
2018-08-24T04:22:35.719Z,17.17
2018-08-24T04:23:35.485Z,17.37
2018-08-24T04:24:35.599Z,17.29
2018-08-24T04:25:35.800Z,17.19
2018-08-24T04:26:36.142Z,17.35
2018-08-24T04:27:35.454Z,17.33
2018-08-24T04:28:35.678Z,17.4
2018-08-24T04:29:35.510Z,17.17
2018-08-24T04:30:35.497Z,17.37
2018-08-24T04:31:35.654Z,17.23
2018-08-24T04:32:35.517Z,17.2
2018-08-24T04:33:35.604Z,17.23
2018-08-24T04:34:36.827Z,17.34
2018-08-24T04:35:35.586Z,17.22
2018-08-24T04:36:35.500Z,17.34
2018-08-24T04:37:35.451Z,17.34
2018-08-24T04:38:35.421Z,17.33
2018-08-24T04:39:35.617Z,17.3
2018-08-24T04:40:35.523Z,17.19
2018-08-24T04:41:35.780Z,17.41
2018-08-24T04:42:35.481Z,17.33
2018-08-24T04:43:35.436Z,17.29
2018-08-24T04:44:35.575Z,17.34
2018-08-24T04:45:36.303Z,17.44
2018-08-24T04:46:35.613Z,17.36
2018-08-24T04:47:35.529Z,17.43
2018-08-24T04:48:35.518Z,17.38
2018-08-24T04:49:36.102Z,17.29
2018-08-24T04:50:35.849Z,17.23
2018-08-24T04:51:37.560Z,17.35
2018-08-24T04:52:35.525Z,17.4
2018-08-24T04:53:35.443Z,17.31
2018-08-24T04:54:35.470Z,17.22
2018-08-24T04:55:35.678Z,17.25
2018-08-24T04:56:35.654Z,17.21
2018-08-24T04:57:35.645Z,17.24
2018-08-24T04:58:35.455Z,17.38
2018-08-24T04:59:35.557Z,17.34
2018-08-24T05:00:35.760Z,17.29
2018-08-24T05:01:35.541Z,17.35
2018-08-24T05:02:35.555Z,17.44
2018-08-24T05:03:35.638Z,17.38
2018-08-24T05:04:35.636Z,17.48
2018-08-24T05:05:36.619Z,17.47
2018-08-24T05:06:35.903Z,17.41
2018-08-24T05:07:35.639Z,17.34
2018-08-24T05:08:35.541Z,17.28
2018-08-24T05:09:35.597Z,17.5
2018-08-24T05:10:35.903Z,17.49
2018-08-24T05:11:35.763Z,17.47
2018-08-24T05:12:35.607Z,17.43
2018-08-24T05:13:35.807Z,17.44
2018-08-24T05:14:35.517Z,17.38
2018-08-24T05:15:35.658Z,17.42
2018-08-24T05:16:35.558Z,17.4
2018-08-24T05:17:35.493Z,17.36
2018-08-24T05:18:35.546Z,17.35
2018-08-24T05:19:35.520Z,17.4
2018-08-24T05:20:35.627Z,17.35
2018-08-24T05:21:35.515Z,17.51
2018-08-24T05:22:35.818Z,17.42
2018-08-24T05:23:35.522Z,17.45
2018-08-24T05:24:35.798Z,17.27
2018-08-24T05:25:36.184Z,17.27
2018-08-24T05:26:35.613Z,17.3
2018-08-24T05:27:35.462Z,17.33
2018-08-24T05:28:36.207Z,17.24
2018-08-24T05:29:35.547Z,17.41
2018-08-24T05:30:35.612Z,17.39
2018-08-24T05:31:35.605Z,17.36
2018-08-24T05:32:35.592Z,17.3
2018-08-24T05:33:36.452Z,17.25
2018-08-24T05:34:35.612Z,17.18
2018-08-24T05:35:36.039Z,17.2
2018-08-24T05:36:35.606Z,17.36
2018-08-24T05:37:35.549Z,17.3
2018-08-24T05:38:35.551Z,17.25
2018-08-24T05:39:35.543Z,17.27
2018-08-24T05:40:35.632Z,17.33
2018-08-24T05:41:35.996Z,17.46
2018-08-24T05:42:37.711Z,17.49
2018-08-24T05:43:35.498Z,17.49
2018-08-24T05:44:35.592Z,17.44
2018-08-24T05:45:35.560Z,17.36
2018-08-24T05:46:35.650Z,17.47
2018-08-24T05:47:35.661Z,17.4
2018-08-24T05:48:35.590Z,17.46
2018-08-24T05:49:35.983Z,17.4
2018-08-24T05:50:35.562Z,17.43
2018-08-24T05:51:36.267Z,17.42
2018-08-24T05:52:36.357Z,17.4
2018-08-24T05:53:35.495Z,17.4
2018-08-24T05:54:35.651Z,17.39
2018-08-24T05:55:36.265Z,17.29
2018-08-24T05:56:35.542Z,17.3
2018-08-24T05:57:36.431Z,17.27
2018-08-24T05:58:35.573Z,17.21
2018-08-24T05:59:35.740Z,17.19
2018-08-24T06:00:35.621Z,17.24
2018-08-24T06:01:36.376Z,17.26
2018-08-24T06:02:35.721Z,17.27
2018-08-24T06:03:35.626Z,17.15
2018-08-24T06:04:35.656Z,17.24
2018-08-24T06:05:35.914Z,17.25
2018-08-24T06:06:35.583Z,17.31
2018-08-24T06:07:35.990Z,17.23
2018-08-24T06:08:35.657Z,17.3
2018-08-24T06:09:35.582Z,17.24
2018-08-24T06:10:35.626Z,17.32
2018-08-24T06:11:35.817Z,17.29
2018-08-24T06:12:35.669Z,17.28
2018-08-24T06:13:35.677Z,17.25
2018-08-24T06:14:35.539Z,17.25
2018-08-24T06:15:35.626Z,17.31
2018-08-24T06:16:35.772Z,17.36
2018-08-24T06:17:35.696Z,17.39
2018-08-24T06:18:35.642Z,17.36
2018-08-24T06:19:35.644Z,17.29
2018-08-24T06:20:35.752Z,17.27
2018-08-24T06:21:35.770Z,17.25
2018-08-24T06:22:35.756Z,17.33
2018-08-24T06:23:35.730Z,17.26
2018-08-24T06:24:36.397Z,17.25
2018-08-24T06:25:35.743Z,17.25
2018-08-24T06:26:35.687Z,17.26
2018-08-24T06:27:36.113Z,17.18
2018-08-24T06:28:35.708Z,17.2
2018-08-24T06:29:35.680Z,17.28
2018-08-24T06:30:35.642Z,17.23
2018-08-24T06:31:36.450Z,17.23
2018-08-24T06:32:35.648Z,17.26
2018-08-24T06:33:36.055Z,17.18
2018-08-24T06:34:35.579Z,17.18
2018-08-24T06:35:35.744Z,17.19
2018-08-24T06:36:35.576Z,17.29
2018-08-24T06:37:35.591Z,17.23
2018-08-24T06:38:35.655Z,17.26
2018-08-24T06:39:35.590Z,17.23
2018-08-24T06:40:35.692Z,17.23
2018-08-24T06:41:35.688Z,17.23
2018-08-24T06:42:35.585Z,17.16
2018-08-24T06:43:35.858Z,17.17
2018-08-24T06:44:36.720Z,17.15
2018-08-24T06:45:35.710Z,17.25
2018-08-24T06:46:35.764Z,17.14
2018-08-24T06:47:36.278Z,17.25
2018-08-24T06:48:36.300Z,17.25
2018-08-24T06:49:35.803Z,17.19
2018-08-24T06:50:35.707Z,17.24
2018-08-24T06:51:35.581Z,17.11
2018-08-24T06:52:36.391Z,17.14
2018-08-24T06:53:36.606Z,17.17
2018-08-24T06:54:35.597Z,17.17
2018-08-24T06:55:35.747Z,17.08
2018-08-24T06:56:35.617Z,17.05
2018-08-24T06:57:35.613Z,17.17
2018-08-24T06:58:35.628Z,17.14
2018-08-24T06:59:35.953Z,17.19
2018-08-24T07:00:35.718Z,17.14
2018-08-24T07:01:35.646Z,17.17
2018-08-24T07:02:35.881Z,17.14
2018-08-24T07:03:35.692Z,17.12
2018-08-24T07:04:35.707Z,17.26
2018-08-24T07:05:36.182Z,17.31
2018-08-24T07:06:35.615Z,17.26
2018-08-24T07:07:35.582Z,17.23
2018-08-24T07:08:35.597Z,17.27
2018-08-24T07:09:35.839Z,17.3
2018-08-24T07:10:35.873Z,17.37
2018-08-24T07:11:35.738Z,17.45
2018-08-24T07:12:35.817Z,17.51
2018-08-24T07:13:36.588Z,17.45
2018-08-24T07:14:36.645Z,17.43
2018-08-24T07:15:35.648Z,17.57
2018-08-24T07:16:35.627Z,17.55
2018-08-24T07:17:35.721Z,17.41
2018-08-24T07:18:35.685Z,17.29
2018-08-24T07:19:35.774Z,17.39
2018-08-24T07:20:35.667Z,17.51
2018-08-24T07:21:36.935Z,17.39
2018-08-24T07:22:35.713Z,17.27
2018-08-24T07:23:35.699Z,17.13
2018-08-24T07:24:35.705Z,17.23
2018-08-24T07:25:35.740Z,17.33
2018-08-24T07:26:36.253Z,17.34
2018-08-24T07:27:35.653Z,17.12
2018-08-24T07:28:35.631Z,17.13
2018-08-24T07:29:36.124Z,16.99
2018-08-24T07:30:36.267Z,17.08
2018-08-24T07:31:35.710Z,16.93
2018-08-24T07:32:36.192Z,17.03
2018-08-24T07:33:35.775Z,17.27
2018-08-24T07:34:36.385Z,17.08
2018-08-24T07:35:35.890Z,16.97
2018-08-24T07:36:35.677Z,16.9
2018-08-24T07:37:35.698Z,17.13
2018-08-24T07:38:36.068Z,17.01
2018-08-24T07:39:35.739Z,16.79
2018-08-24T07:40:35.664Z,16.75
2018-08-24T07:41:36.800Z,16.78
2018-08-24T07:42:35.632Z,16.83
2018-08-24T07:43:35.886Z,16.92
2018-08-24T07:44:35.648Z,16.86
2018-08-24T07:45:35.709Z,16.82
2018-08-24T07:46:35.743Z,16.78
2018-08-24T07:47:35.847Z,16.66
2018-08-24T07:48:35.650Z,16.72
2018-08-24T07:49:35.672Z,16.63
2018-08-24T07:50:35.670Z,16.76
2018-08-24T07:51:35.778Z,16.62
2018-08-24T07:52:35.760Z,16.57
2018-08-24T07:53:35.752Z,16.55
2018-08-24T07:54:35.679Z,16.63
2018-08-24T07:55:35.875Z,16.75
2018-08-24T07:56:35.666Z,16.65
2018-08-24T07:57:35.689Z,16.6
2018-08-24T07:58:35.918Z,16.54
2018-08-24T07:59:35.688Z,16.68
2018-08-24T08:00:35.712Z,16.64
2018-08-24T08:01:35.730Z,16.58
2018-08-24T08:02:35.773Z,16.49
2018-08-24T08:03:36.054Z,16.61
2018-08-24T08:04:35.879Z,16.56
2018-08-24T08:05:35.669Z,16.63
2018-08-24T08:06:35.725Z,16.58
2018-08-24T08:07:35.805Z,16.68
2018-08-24T08:08:35.840Z,16.71
2018-08-24T08:09:35.718Z,16.74
2018-08-24T08:10:35.676Z,16.82
2018-08-24T08:11:35.680Z,16.77
2018-08-24T08:12:36.420Z,16.52
2018-08-24T08:13:35.678Z,16.48
2018-08-24T08:14:35.681Z,16.54
2018-08-24T08:15:35.919Z,16.6
2018-08-24T08:16:35.676Z,16.56
2018-08-24T08:17:35.786Z,16.65
2018-08-24T08:18:35.916Z,16.66
2018-08-24T08:19:35.783Z,16.55
2018-08-24T08:20:35.686Z,16.5
2018-08-24T08:21:35.654Z,16.38
2018-08-24T08:22:35.683Z,16.49
2018-08-24T08:23:35.716Z,16.39
2018-08-24T08:24:35.840Z,16.42
2018-08-24T08:25:35.682Z,16.34
2018-08-24T08:26:35.694Z,16.42
2018-08-24T08:27:35.718Z,16.4
2018-08-24T08:28:35.759Z,16.38
2018-08-24T08:29:35.806Z,16.33
2018-08-24T08:30:36.328Z,16.26
2018-08-24T08:31:35.744Z,16.36
2018-08-24T08:32:35.685Z,16.32
2018-08-24T08:33:35.822Z,16.32
2018-08-24T08:34:35.993Z,16.26
2018-08-24T08:35:35.849Z,16.32
2018-08-24T08:36:35.720Z,16.2
2018-08-24T08:37:36.093Z,16.17
2018-08-24T08:38:36.090Z,16.17
2018-08-24T08:39:35.717Z,16.03
2018-08-24T08:40:35.867Z,15.89
2018-08-24T08:41:35.875Z,15.78
2018-08-24T08:42:35.845Z,15.82
2018-08-24T08:43:35.747Z,15.75
2018-08-24T08:44:35.802Z,15.8
2018-08-24T08:45:35.751Z,15.84
2018-08-24T08:46:35.870Z,15.92
2018-08-24T08:47:35.818Z,15.79
2018-08-24T08:48:35.775Z,15.78
2018-08-24T08:49:36.006Z,15.81
2018-08-24T08:50:36.061Z,15.8
2018-08-24T08:51:35.759Z,15.84
2018-08-24T08:52:35.814Z,15.84
2018-08-24T08:53:36.195Z,15.7
2018-08-24T08:54:35.839Z,15.69
2018-08-24T08:55:35.797Z,15.71
2018-08-24T08:56:35.755Z,15.54
2018-08-24T08:57:35.915Z,15.59
2018-08-24T08:58:36.108Z,15.64
2018-08-24T08:59:35.711Z,15.54
2018-08-24T09:00:35.816Z,15.47
2018-08-24T09:01:36.022Z,15.3
2018-08-24T09:02:36.151Z,15.39
2018-08-24T09:03:35.821Z,15.39
2018-08-24T09:04:36.567Z,15.41
2018-08-24T09:05:35.866Z,15.55
2018-08-24T09:06:35.850Z,15.28
2018-08-24T09:07:36.094Z,15.03
2018-08-24T09:08:35.869Z,14.96
2018-08-24T09:09:35.942Z,14.94
2018-08-24T09:10:35.939Z,14.97
2018-08-24T09:11:36.093Z,15.01
2018-08-24T09:12:35.805Z,14.97
2018-08-24T09:13:36.095Z,14.89
2018-08-24T09:14:36.164Z,14.98
2018-08-24T09:15:35.921Z,14.9
2018-08-24T09:16:35.783Z,14.85
2018-08-24T09:17:35.766Z,14.94
2018-08-24T09:18:36.444Z,14.93
2018-08-24T09:19:35.816Z,15.09
2018-08-24T09:20:35.836Z,15.2
2018-08-24T09:21:35.789Z,15.36
2018-08-24T09:22:36.288Z,15.49
2018-08-24T09:23:35.839Z,14.7
2018-08-24T09:24:35.955Z,14.75
2018-08-24T09:25:36.481Z,15.07
2018-08-24T09:26:35.808Z,14.66
2018-08-24T09:27:35.918Z,15.08
2018-08-24T09:28:36.044Z,15.33
2018-08-24T09:29:35.780Z,15.27
2018-08-24T09:30:35.796Z,15.34
2018-08-24T09:31:35.902Z,15.2
2018-08-24T09:32:37.165Z,15.34
2018-08-24T09:33:35.776Z,15.45
2018-08-24T09:34:36.178Z,15.61
2018-08-24T09:35:35.789Z,15.55
2018-08-24T09:36:35.851Z,15.91
2018-08-24T09:37:35.817Z,15.74
2018-08-24T09:38:35.902Z,15.96
2018-08-24T09:39:35.805Z,15.61
2018-08-24T09:40:35.901Z,15.21
2018-08-24T09:41:35.806Z,14.78
2018-08-24T09:42:36.134Z,14.92
2018-08-24T09:43:35.784Z,14.5
2018-08-24T09:44:35.944Z,14.67
2018-08-24T09:45:35.925Z,14.73
2018-08-24T09:46:35.922Z,14.69
2018-08-24T09:47:35.873Z,14.77
2018-08-24T09:48:36.476Z,14.62
2018-08-24T09:49:35.903Z,14.59
2018-08-24T09:50:35.824Z,14.74
2018-08-24T09:51:35.928Z,14.63
2018-08-24T09:52:36.114Z,14.71
2018-08-24T09:53:36.213Z,14.6
2018-08-24T09:54:36.020Z,14.79
2018-08-24T09:55:35.845Z,14.85
2018-08-24T09:56:35.881Z,14.65
2018-08-24T09:57:35.871Z,15
2018-08-24T09:58:35.849Z,15.04
2018-08-24T09:59:35.820Z,15
2018-08-24T10:00:35.901Z,15.28
2018-08-24T10:01:36.293Z,15.23
2018-08-24T10:02:36.431Z,15.32
2018-08-24T10:03:35.901Z,15.11
2018-08-24T10:04:35.828Z,15.06
2018-08-24T10:05:36.133Z,14.97
2018-08-24T10:06:36.130Z,14.73
2018-08-24T10:07:36.052Z,15.16
2018-08-24T10:08:36.184Z,14.76
2018-08-24T10:09:36.015Z,14.58
2018-08-24T10:10:35.890Z,14.75
2018-08-24T10:11:36.090Z,15.16
2018-08-24T10:12:36.469Z,14.87
2018-08-24T10:13:35.853Z,14.83
2018-08-24T10:14:36.265Z,15.18
2018-08-24T10:16:36.076Z,14.72
2018-08-24T10:17:36.169Z,14.8
2018-08-24T10:18:35.960Z,14.6
2018-08-24T10:19:36.097Z,15.09
2018-08-24T10:20:37.003Z,15.11
2018-08-24T10:21:36.071Z,15.3
2018-08-24T10:22:36.088Z,15
2018-08-24T10:23:35.926Z,14.85
2018-08-24T10:24:35.991Z,15.08
2018-08-24T10:25:36.004Z,15.21
2018-08-24T10:26:36.106Z,15.15
2018-08-24T10:27:37.078Z,14.86
2018-08-24T10:28:35.896Z,14.72
2018-08-24T10:29:36.574Z,14.52
2018-08-24T10:30:36.050Z,14.76
2018-08-24T10:31:36.089Z,14.59
2018-08-24T10:32:35.874Z,14.52
2018-08-24T10:33:36.322Z,14.62
2018-08-24T10:34:36.091Z,14.89
2018-08-24T10:35:35.860Z,14.82
2018-08-24T10:36:36.102Z,14.9
2018-08-24T10:37:36.294Z,14.68
2018-08-24T10:38:36.198Z,14.85
2018-08-24T10:39:36.207Z,14.69
2018-08-24T10:40:36.001Z,15.14
2018-08-24T10:41:36.204Z,14.8
2018-08-24T10:42:36.636Z,14.79
2018-08-24T10:43:35.857Z,15.03
2018-08-24T10:44:36.237Z,14.96
2018-08-24T10:45:36.348Z,15.01
2018-08-24T10:46:36.033Z,14.44
2018-08-24T10:47:36.312Z,14.85
2018-08-24T10:48:36.266Z,14.67
2018-08-24T10:49:35.970Z,14.52
2018-08-24T10:50:36.097Z,14.52
2018-08-24T10:51:36.522Z,14.44
2018-08-24T10:52:36.091Z,14.79
2018-08-24T10:53:36.092Z,14.94
2018-08-24T10:54:36.002Z,14.56
2018-08-24T10:55:36.253Z,14.72
2018-08-24T10:56:36.042Z,14.57
2018-08-24T10:57:36.218Z,14.55
2018-08-24T10:58:36.029Z,14.54
2018-08-24T10:59:35.964Z,14.46
2018-08-24T11:00:36.041Z,14.41
2018-08-24T11:01:35.963Z,14.51
2018-08-24T11:02:35.894Z,14.17
2018-08-24T11:03:36.063Z,14.22
2018-08-24T11:04:35.969Z,14.35
2018-08-24T11:05:35.978Z,14.34
2018-08-24T11:06:36.080Z,14.41
2018-08-24T11:07:36.651Z,14.71
2018-08-24T11:08:35.979Z,14.62
2018-08-24T11:09:35.987Z,14.57
2018-08-24T11:10:36.221Z,14.42
2018-08-24T11:11:36.128Z,14.6
2018-08-24T11:12:36.013Z,14.54
2018-08-24T11:13:36.028Z,14.46
2018-08-24T11:14:35.927Z,14.5
2018-08-24T11:15:36.043Z,14.43
2018-08-24T11:16:37.321Z,14.41
2018-08-24T11:17:36.277Z,14
2018-08-24T11:18:36.064Z,13.94
2018-08-24T11:19:35.979Z,14.11
2018-08-24T11:20:36.060Z,14.24
2018-08-24T11:21:36.006Z,14.27
2018-08-24T11:22:36.407Z,14.21
2018-08-24T11:23:35.927Z,14.46
2018-08-24T11:24:37.329Z,14.51
2018-08-24T11:25:36.307Z,14.35
2018-08-24T11:26:35.996Z,14.47
2018-08-24T11:27:36.143Z,14.41
2018-08-24T11:28:36.586Z,14.44
2018-08-24T11:29:35.940Z,14.45
2018-08-24T11:30:36.160Z,14.48
2018-08-24T11:31:36.153Z,14.57
2018-08-24T11:32:36.272Z,14.71
2018-08-24T11:33:36.084Z,14.52
2018-08-24T11:34:36.070Z,14.48
2018-08-24T11:35:36.033Z,14.75
2018-08-24T11:36:37.114Z,14.62
2018-08-24T11:37:35.931Z,14.71
2018-08-24T11:38:36.073Z,14.79
2018-08-24T11:39:36.216Z,14.74
2018-08-24T11:40:36.107Z,14.62
2018-08-24T11:41:36.111Z,14.72
2018-08-24T11:42:36.546Z,14.78
2018-08-24T11:43:36.134Z,14.65
2018-08-24T11:44:36.042Z,14.82
2018-08-24T11:45:36.549Z,14.75
2018-08-24T11:46:36.099Z,14.7
2018-08-24T11:47:36.478Z,14.83
2018-08-24T11:48:36.179Z,14.87
2018-08-24T11:49:36.112Z,14.87
2018-08-24T11:50:36.338Z,14.93
2018-08-24T11:51:36.292Z,14.89
2018-08-24T11:52:36.007Z,14.78
2018-08-24T11:53:36.131Z,14.87
2018-08-24T11:54:37.077Z,14.79
2018-08-24T11:55:35.943Z,14.64
2018-08-24T11:56:36.175Z,14.77
2018-08-24T11:57:36.222Z,14.88
2018-08-24T11:58:36.061Z,14.84
2018-08-24T11:59:36.033Z,14.88
2018-08-24T12:00:36.152Z,14.88
2018-08-24T12:01:36.251Z,15.02
2018-08-24T12:02:36.063Z,15.01
2018-08-24T12:03:36.503Z,15.06
2018-08-24T12:04:36.071Z,15.03
2018-08-24T12:05:36.173Z,15.01
2018-08-24T12:06:36.082Z,14.9
2018-08-24T12:07:36.161Z,14.58
2018-08-24T12:08:36.042Z,14.66
2018-08-24T12:09:37.227Z,14.73
2018-08-24T12:10:37.149Z,14.6
2018-08-24T12:11:36.057Z,14.6
2018-08-24T12:12:36.769Z,14.41
2018-08-24T12:13:36.435Z,14.33
2018-08-24T12:14:36.232Z,14.59
2018-08-24T12:15:36.308Z,14.65
2018-08-24T12:16:36.037Z,14.52
2018-08-24T12:17:35.992Z,14.24
2018-08-24T12:18:36.368Z,14.24
2018-08-24T12:19:36.033Z,14.07
2018-08-24T12:20:36.069Z,14.09
2018-08-24T12:21:36.323Z,14.18
2018-08-24T12:22:36.081Z,14.11
2018-08-24T12:23:36.078Z,13.95
2018-08-24T12:24:36.832Z,14.02
2018-08-24T12:25:36.418Z,14.04
2018-08-24T12:26:36.649Z,14.08
2018-08-24T12:27:36.243Z,14.09
2018-08-24T12:28:36.243Z,14.15
2018-08-24T12:29:36.108Z,13.86
2018-08-24T12:30:36.146Z,13.97
2018-08-24T12:31:36.020Z,13.86
2018-08-24T12:32:36.005Z,13.9
2018-08-24T12:33:36.082Z,13.86
2018-08-24T12:34:36.464Z,13.74
2018-08-24T12:35:36.034Z,14.05
2018-08-24T12:36:36.311Z,14.08
2018-08-24T12:37:36.061Z,14.21
2018-08-24T12:38:36.152Z,14.23
2018-08-24T12:39:36.098Z,14.2
2018-08-24T12:40:36.371Z,14.14
2018-08-24T12:41:36.215Z,14.04
2018-08-24T12:42:37.264Z,14.05
2018-08-24T12:43:36.891Z,14.28
2018-08-24T12:44:36.010Z,14.21
2018-08-24T12:45:36.338Z,14.27
2018-08-24T12:46:36.158Z,14.13
2018-08-24T12:47:36.126Z,14.24
2018-08-24T12:48:36.684Z,14.32
2018-08-24T12:49:36.167Z,14.28
2018-08-24T12:50:36.051Z,14.36
2018-08-24T12:51:36.292Z,14.24
2018-08-24T12:52:36.234Z,14.2
2018-08-24T12:53:36.121Z,14.21
2018-08-24T12:54:38.391Z,14.23
2018-08-24T12:55:36.063Z,14.3
2018-08-24T12:56:36.007Z,14.1